ASK47R LEMD-EPWA
Flight info
| Callsign | ASK47R |
|---|---|
| Flight time | 3h 3m |
| Altitude | 36000 |
| Route | PINAR N870 SEGRE N871 TOPTU DCT TOU DCT GAI DCT MEN DCT NINUN DCT LATAM DCT ETREK DCT LTP DCT SOPLO DCT OMASI DCT KINNI/N0452F370 DCT SOSAL DCT KORED DCT BERSU DCT DITON DCT DEGES DCT GAMSA DCT BEPAS DCT LEGAZ DCT LAGAR N871 OKENO Q277 AGAVA |
| Aircraft | B738/M-SDE2E3FGHIRWXY/LB1 |
Departure
| Time | 2026-05-01 12:23 |
|---|---|
| Airport | Adolfo Suárez Madrid–Barajas Airport (LEMD) |
Arrival
| Time | 2026-05-01 15:26 |
|---|---|
| Airport | Warsaw Chopin Airport (EPWA) |
| Time | Latitude | Longitude | Altitude | Speed | Heading |
|---|---|---|---|---|---|
| 2026-05-01 11:52 | 40.49838 | -3.56663 | 1970 ft | 0 kts | 269° |
| 2026-05-01 12:15 | 40.49838 | -3.56660 | 1970 ft | 2 kts | 270° |
| 2026-05-01 12:15 | 40.49838 | -3.56633 | 1973 ft | 3 kts | 272° |
| 2026-05-01 12:15 | 40.49837 | -3.56604 | 1976 ft | 3 kts | 277° |
| 2026-05-01 12:15 | 40.49833 | -3.56576 | 1974 ft | 3 kts | 289° |
| 2026-05-01 12:16 | 40.49824 | -3.56554 | 1974 ft | 3 kts | 324° |
| 2026-05-01 12:16 | 40.49815 | -3.56547 | 1979 ft | 0 kts | 360° |
| 2026-05-01 12:18 | 40.49834 | -3.56547 | 1968 ft | 5 kts | 0° |
| 2026-05-01 12:18 | 40.49875 | -3.56547 | 1975 ft | 7 kts | 360° |
| 2026-05-01 12:19 | 40.49922 | -3.56535 | 1968 ft | 7 kts | 38° |
| 2026-05-01 12:19 | 40.49938 | -3.56471 | 1966 ft | 9 kts | 88° |
| 2026-05-01 12:19 | 40.49938 | -3.56381 | 1964 ft | 11 kts | 90° |
| 2026-05-01 12:19 | 40.49939 | -3.56278 | 1961 ft | 12 kts | 89° |
| 2026-05-01 12:20 | 40.49939 | -3.56162 | 1958 ft | 14 kts | 90° |
| 2026-05-01 12:20 | 40.49939 | -3.56093 | 1956 ft | 0 kts | 85° |
| 2026-05-01 12:20 | 40.49939 | -3.56091 | 1956 ft | 0 kts | 85° |
| 2026-05-01 12:20 | 40.49939 | -3.56088 | 1956 ft | 1 kts | 85° |
| 2026-05-01 12:21 | 40.49940 | -3.56084 | 1956 ft | 1 kts | 85° |
| 2026-05-01 12:21 | 40.49940 | -3.56082 | 1956 ft | 0 kts | 85° |
| 2026-05-01 12:21 | 40.49940 | -3.56081 | 1956 ft | 0 kts | 85° |
| 2026-05-01 12:21 | 40.49943 | -3.56053 | 1956 ft | 6 kts | 79° |
| 2026-05-01 12:22 | 40.49964 | -3.55991 | 1958 ft | 9 kts | 55° |
| 2026-05-01 12:22 | 40.50029 | -3.55928 | 1958 ft | 15 kts | 18° |
| 2026-05-01 12:22 | 40.50171 | -3.55921 | 1959 ft | 40 kts | 359° |
| 2026-05-01 12:22 | 40.50687 | -3.55924 | 1964 ft | 107 kts | 360° |
| 2026-05-01 12:23 | 40.51644 | -3.55931 | 1950 ft | 165 kts | 360° |
| 2026-05-01 12:23 | 40.52942 | -3.55945 | 2109 ft | 200 kts | 359° |
| 2026-05-01 12:23 | 40.54347 | -3.55913 | 2837 ft | 204 kts | 4° |
| 2026-05-01 12:23 | 40.55717 | -3.55467 | 3673 ft | 204 kts | 21° |
| 2026-05-01 12:24 | 40.57084 | -3.54845 | 4508 ft | 211 kts | 19° |
| 2026-05-01 12:24 | 40.58493 | -3.54250 | 5343 ft | 214 kts | 19° |
| 2026-05-01 12:24 | 40.59827 | -3.53423 | 6162 ft | 212 kts | 40° |
| 2026-05-01 12:24 | 40.60941 | -3.52160 | 6970 ft | 211 kts | 43° |
| 2026-05-01 12:25 | 40.62048 | -3.50900 | 7718 ft | 213 kts | 42° |
| 2026-05-01 12:25 | 40.64454 | -3.48179 | 8400 ft | 250 kts | 41° |
| 2026-05-01 12:25 | 40.65813 | -3.46647 | 8573 ft | 271 kts | 41° |
| 2026-05-01 12:26 | 40.67302 | -3.44975 | 8770 ft | 291 kts | 41° |
| 2026-05-01 12:26 | 40.70473 | -3.41419 | 9920 ft | 302 kts | 41° |
| 2026-05-01 12:26 | 40.72094 | -3.39602 | 10399 ft | 313 kts | 41° |
| 2026-05-01 12:27 | 40.73811 | -3.37676 | 10547 ft | 334 kts | 41° |
| 2026-05-01 12:27 | 40.77558 | -3.33470 | 10838 ft | 373 kts | 40° |
| 2026-05-01 12:28 | 40.81628 | -3.28897 | 11622 ft | 390 kts | 40° |
| 2026-05-01 12:28 | 40.83694 | -3.26565 | 12260 ft | 391 kts | 42° |
| 2026-05-01 12:28 | 40.86357 | -3.20402 | 13504 ft | 394 kts | 76° |
| 2026-05-01 12:29 | 40.87050 | -3.16891 | 14079 ft | 398 kts | 77° |
| 2026-05-01 12:29 | 40.87717 | -3.13318 | 14584 ft | 403 kts | 77° |
| 2026-05-01 12:29 | 40.89076 | -3.06059 | 15730 ft | 410 kts | 77° |
| 2026-05-01 12:30 | 40.90489 | -2.98716 | 16882 ft | 416 kts | 76° |
| 2026-05-01 12:30 | 40.91213 | -2.94995 | 17451 ft | 419 kts | 76° |
| 2026-05-01 12:30 | 40.91944 | -2.91244 | 17964 ft | 423 kts | 76° |
| 2026-05-01 12:31 | 40.92681 | -2.87459 | 18500 ft | 427 kts | 76° |
| 2026-05-01 12:31 | 40.93421 | -2.83649 | 18965 ft | 430 kts | 76° |
| 2026-05-01 12:31 | 40.94166 | -2.79808 | 19465 ft | 432 kts | 76° |
| 2026-05-01 12:31 | 40.94913 | -2.75948 | 19956 ft | 435 kts | 76° |
| 2026-05-01 12:32 | 40.95664 | -2.72054 | 20422 ft | 437 kts | 76° |
| 2026-05-01 12:32 | 40.97176 | -2.64201 | 21322 ft | 443 kts | 76° |
| 2026-05-01 12:32 | 40.97937 | -2.60238 | 21788 ft | 445 kts | 77° |
| 2026-05-01 12:33 | 40.98703 | -2.56255 | 22208 ft | 449 kts | 76° |
| 2026-05-01 12:33 | 40.99481 | -2.52240 | 22601 ft | 452 kts | 76° |
| 2026-05-01 12:33 | 41.00253 | -2.48249 | 23012 ft | 455 kts | 76° |
| 2026-05-01 12:33 | 41.01037 | -2.44186 | 23446 ft | 457 kts | 76° |
| 2026-05-01 12:34 | 41.02080 | -2.40196 | 23770 ft | 462 kts | 64° |
| 2026-05-01 12:34 | 41.03765 | -2.36570 | 24093 ft | 465 kts | 52° |
| 2026-05-01 12:34 | 41.05979 | -2.33446 | 24454 ft | 466 kts | 39° |
| 2026-05-01 12:34 | 41.08506 | -2.30764 | 24827 ft | 466 kts | 37° |
| 2026-05-01 12:35 | 41.11075 | -2.28113 | 25152 ft | 469 kts | 37° |
| 2026-05-01 12:35 | 41.13659 | -2.25449 | 25415 ft | 473 kts | 37° |
| 2026-05-01 12:35 | 41.16254 | -2.22751 | 25696 ft | 475 kts | 38° |
| 2026-05-01 12:35 | 41.18853 | -2.20024 | 26021 ft | 477 kts | 38° |
| 2026-05-01 12:36 | 41.21446 | -2.17281 | 26357 ft | 478 kts | 38° |
| 2026-05-01 12:36 | 41.24048 | -2.14512 | 26668 ft | 479 kts | 38° |
| 2026-05-01 12:36 | 41.26656 | -2.11730 | 26953 ft | 482 kts | 38° |
| 2026-05-01 12:36 | 41.29273 | -2.08932 | 27225 ft | 484 kts | 38° |
| 2026-05-01 12:37 | 41.31897 | -2.06122 | 27500 ft | 486 kts | 38° |
| 2026-05-01 12:37 | 41.34532 | -2.03299 | 27794 ft | 487 kts | 38° |
| 2026-05-01 12:37 | 41.37174 | -2.00467 | 28104 ft | 488 kts | 38° |
| 2026-05-01 12:37 | 41.39814 | -1.97634 | 28514 ft | 487 kts | 38° |
| 2026-05-01 12:38 | 41.42443 | -1.94809 | 28980 ft | 484 kts | 38° |
| 2026-05-01 12:38 | 41.45055 | -1.92000 | 29425 ft | 482 kts | 38° |
| 2026-05-01 12:38 | 41.47665 | -1.89192 | 29783 ft | 482 kts | 38° |
| 2026-05-01 12:38 | 41.50281 | -1.86374 | 30008 ft | 485 kts | 39° |
| 2026-05-01 12:39 | 41.52906 | -1.83543 | 30313 ft | 485 kts | 39° |
| 2026-05-01 12:39 | 41.55523 | -1.80717 | 30699 ft | 482 kts | 38° |
| 2026-05-01 12:39 | 41.58121 | -1.77909 | 31118 ft | 479 kts | 38° |
| 2026-05-01 12:39 | 41.60708 | -1.75110 | 31479 ft | 477 kts | 38° |
| 2026-05-01 12:40 | 41.63250 | -1.72356 | 31779 ft | 477 kts | 38° |
| 2026-05-01 12:40 | 41.65828 | -1.69561 | 32078 ft | 476 kts | 38° |
| 2026-05-01 12:40 | 41.68398 | -1.66771 | 32409 ft | 475 kts | 38° |
| 2026-05-01 12:40 | 41.70958 | -1.63989 | 32747 ft | 474 kts | 38° |
| 2026-05-01 12:41 | 41.73511 | -1.61211 | 33068 ft | 472 kts | 38° |
| 2026-05-01 12:41 | 41.76059 | -1.58437 | 33375 ft | 471 kts | 38° |
| 2026-05-01 12:41 | 41.78602 | -1.55665 | 33610 ft | 472 kts | 38° |
| 2026-05-01 12:41 | 41.81154 | -1.52881 | 33780 ft | 474 kts | 38° |
| 2026-05-01 12:42 | 41.83714 | -1.50084 | 34019 ft | 474 kts | 39° |
| 2026-05-01 12:42 | 41.86265 | -1.47294 | 34298 ft | 473 kts | 39° |
| 2026-05-01 12:42 | 41.88814 | -1.44504 | 34535 ft | 472 kts | 39° |
| 2026-05-01 12:42 | 41.91356 | -1.41718 | 34768 ft | 472 kts | 39° |
| 2026-05-01 12:43 | 41.93897 | -1.38930 | 34962 ft | 472 kts | 39° |
| 2026-05-01 12:43 | 41.95579 | -1.37083 | 35127 ft | 471 kts | 39° |
| 2026-05-01 12:43 | 41.98115 | -1.34295 | 35365 ft | 470 kts | 39° |
| 2026-05-01 12:43 | 42.00641 | -1.31515 | 35604 ft | 469 kts | 39° |
| 2026-05-01 12:44 | 42.03171 | -1.28729 | 35771 ft | 470 kts | 39° |
| 2026-05-01 12:44 | 42.05698 | -1.25942 | 35974 ft | 470 kts | 39° |
| 2026-05-01 12:44 | 42.10728 | -1.20388 | 36154 ft | 468 kts | 39° |
| 2026-05-01 12:45 | 42.15764 | -1.14807 | 36175 ft | 470 kts | 39° |
| 2026-05-01 12:45 | 42.20817 | -1.09191 | 36180 ft | 471 kts | 39° |
| 2026-05-01 12:46 | 42.25885 | -1.03544 | 36187 ft | 473 kts | 39° |
| 2026-05-01 12:46 | 42.30970 | -0.97868 | 36184 ft | 475 kts | 39° |
| 2026-05-01 12:47 | 42.36063 | -0.92171 | 36183 ft | 476 kts | 39° |
| 2026-05-01 12:47 | 42.41163 | -0.86454 | 36187 ft | 476 kts | 39° |
| 2026-05-01 12:48 | 42.45684 | -0.79936 | 36188 ft | 476 kts | 52° |
| 2026-05-01 12:48 | 42.49668 | -0.72788 | 36179 ft | 475 kts | 53° |
| 2026-05-01 12:49 | 42.53646 | -0.65661 | 36174 ft | 473 kts | 53° |
| 2026-05-01 12:49 | 42.57611 | -0.58640 | 36201 ft | 471 kts | 52° |
| 2026-05-01 12:50 | 42.61597 | -0.51601 | 36200 ft | 469 kts | 52° |
| 2026-05-01 12:50 | 42.65568 | -0.44573 | 36223 ft | 468 kts | 52° |
| 2026-05-01 12:51 | 42.69521 | -0.37556 | 36225 ft | 468 kts | 52° |
| 2026-05-01 12:52 | 42.75438 | -0.27017 | 36232 ft | 468 kts | 52° |
| 2026-05-01 12:52 | 42.81390 | -0.16448 | 36222 ft | 471 kts | 51° |
| 2026-05-01 12:53 | 42.87654 | -0.06088 | 36226 ft | 474 kts | 50° |
| 2026-05-01 12:54 | 42.91857 | 0.00840 | 36222 ft | 474 kts | 50° |
| 2026-05-01 12:54 | 42.98128 | 0.11307 | 36227 ft | 475 kts | 51° |
| 2026-05-01 12:55 | 43.04353 | 0.21762 | 36219 ft | 475 kts | 51° |
| 2026-05-01 12:56 | 43.08511 | 0.28766 | 36231 ft | 474 kts | 51° |
| 2026-05-01 12:56 | 43.12675 | 0.35795 | 36220 ft | 476 kts | 51° |
| 2026-05-01 12:57 | 43.16855 | 0.42868 | 36182 ft | 477 kts | 51° |
| 2026-05-01 12:57 | 43.23022 | 0.53335 | 36216 ft | 469 kts | 51° |
| 2026-05-01 12:58 | 43.27119 | 0.60307 | 36192 ft | 470 kts | 51° |
| 2026-05-01 12:59 | 43.33263 | 0.70796 | 36196 ft | 471 kts | 51° |
| 2026-05-01 12:59 | 43.39420 | 0.81346 | 36195 ft | 472 kts | 51° |
| 2026-05-01 13:00 | 43.45578 | 0.91935 | 36202 ft | 473 kts | 51° |
| 2026-05-01 13:01 | 43.51742 | 1.02573 | 36198 ft | 474 kts | 52° |
| 2026-05-01 13:02 | 43.57876 | 1.13199 | 36196 ft | 474 kts | 52° |
| 2026-05-01 13:07 | 44.01051 | 1.93618 | 36225 ft | 470 kts | 56° |
| 2026-05-01 13:08 | 44.04748 | 2.01113 | 36237 ft | 470 kts | 56° |
| 2026-05-01 13:08 | 44.08450 | 2.08603 | 36228 ft | 470 kts | 56° |
| 2026-05-01 13:09 | 44.12152 | 2.16084 | 36240 ft | 469 kts | 56° |
| 2026-05-01 13:09 | 44.15852 | 2.23577 | 36243 ft | 469 kts | 56° |
| 2026-05-01 13:10 | 44.19544 | 2.31071 | 36241 ft | 469 kts | 56° |
| 2026-05-01 13:10 | 44.23233 | 2.38582 | 36264 ft | 470 kts | 56° |
| 2026-05-01 13:11 | 44.26934 | 2.46136 | 36250 ft | 473 kts | 56° |
| 2026-05-01 13:11 | 44.30642 | 2.53725 | 36264 ft | 474 kts | 57° |
| 2026-05-01 13:12 | 44.34350 | 2.61333 | 36263 ft | 474 kts | 57° |
| 2026-05-01 13:12 | 44.38035 | 2.68914 | 36253 ft | 475 kts | 56° |
| 2026-05-01 13:13 | 44.41738 | 2.76552 | 36264 ft | 475 kts | 56° |
| 2026-05-01 13:13 | 44.45441 | 2.84211 | 36266 ft | 475 kts | 56° |
| 2026-05-01 13:14 | 44.49139 | 2.91878 | 36268 ft | 475 kts | 56° |
| 2026-05-01 13:14 | 44.52831 | 2.99556 | 36274 ft | 474 kts | 56° |
| 2026-05-01 13:15 | 44.56509 | 3.07225 | 36279 ft | 473 kts | 56° |
| 2026-05-01 13:15 | 44.60175 | 3.14886 | 36279 ft | 472 kts | 56° |
| 2026-05-01 13:16 | 44.63577 | 3.22758 | 36275 ft | 471 kts | 60° |
| 2026-05-01 13:16 | 44.66741 | 3.30809 | 36270 ft | 470 kts | 61° |
| 2026-05-01 13:17 | 44.73062 | 3.46692 | 36271 ft | 469 kts | 60° |
| 2026-05-01 13:18 | 44.77855 | 3.58691 | 36259 ft | 469 kts | 60° |
| 2026-05-01 13:18 | 44.81032 | 3.66715 | 36263 ft | 469 kts | 61° |
| 2026-05-01 13:19 | 44.84201 | 3.74751 | 36258 ft | 470 kts | 61° |
| 2026-05-01 13:20 | 44.88955 | 3.86843 | 36261 ft | 470 kts | 60° |
| 2026-05-01 13:20 | 44.92099 | 3.94866 | 36264 ft | 471 kts | 60° |
| 2026-05-01 13:21 | 44.96862 | 4.07063 | 36257 ft | 471 kts | 60° |
| 2026-05-01 13:21 | 45.00017 | 4.15173 | 36272 ft | 471 kts | 60° |
| 2026-05-01 13:22 | 45.03149 | 4.23246 | 36260 ft | 471 kts | 60° |
| 2026-05-01 13:22 | 45.06297 | 4.31377 | 36264 ft | 471 kts | 60° |
| 2026-05-01 13:23 | 45.09436 | 4.39504 | 36258 ft | 471 kts | 60° |
| 2026-05-01 13:23 | 45.12569 | 4.47641 | 36254 ft | 471 kts | 60° |
| 2026-05-01 13:24 | 45.15697 | 4.55790 | 36251 ft | 471 kts | 60° |
| 2026-05-01 13:25 | 45.20300 | 4.67823 | 36251 ft | 470 kts | 60° |
| 2026-05-01 13:25 | 45.23408 | 4.75987 | 36245 ft | 470 kts | 60° |
| 2026-05-01 13:26 | 45.26458 | 4.84025 | 36248 ft | 470 kts | 60° |
| 2026-05-01 13:26 | 45.29553 | 4.92206 | 36251 ft | 470 kts | 60° |
| 2026-05-01 13:27 | 45.32531 | 5.00099 | 36257 ft | 470 kts | 60° |
| 2026-05-01 13:27 | 45.37131 | 5.12334 | 36264 ft | 470 kts | 60° |
| 2026-05-01 13:28 | 45.41743 | 5.24661 | 36275 ft | 471 kts | 60° |
| 2026-05-01 13:29 | 45.47906 | 5.41104 | 36261 ft | 470 kts | 56° |
| 2026-05-01 13:30 | 45.56925 | 5.54244 | 36258 ft | 464 kts | 39° |
| 2026-05-01 13:31 | 45.61772 | 5.60322 | 36248 ft | 464 kts | 39° |
| 2026-05-01 13:32 | 45.73734 | 5.75669 | 36250 ft | 463 kts | 40° |
| 2026-05-01 13:33 | 45.85528 | 5.90842 | 36256 ft | 462 kts | 40° |
| 2026-05-01 13:34 | 45.95073 | 6.03191 | 36265 ft | 461 kts | 40° |
| 2026-05-01 13:35 | 46.01401 | 6.11416 | 36266 ft | 460 kts | 40° |
| 2026-05-01 13:36 | 46.08518 | 6.20697 | 36269 ft | 460 kts | 41° |
| 2026-05-01 13:36 | 46.15425 | 6.30312 | 36270 ft | 460 kts | 44° |
| 2026-05-01 13:37 | 46.19950 | 6.36837 | 36268 ft | 460 kts | 44° |
| 2026-05-01 13:37 | 46.24499 | 6.43355 | 36271 ft | 460 kts | 44° |
| 2026-05-01 13:38 | 46.31327 | 6.53116 | 36274 ft | 460 kts | 44° |
| 2026-05-01 13:39 | 46.35880 | 6.59642 | 36274 ft | 461 kts | 44° |
| 2026-05-01 13:39 | 46.40394 | 6.66129 | 36271 ft | 461 kts | 44° |
| 2026-05-01 13:40 | 46.44938 | 6.72678 | 36271 ft | 460 kts | 44° |
| 2026-05-01 13:40 | 46.49469 | 6.79224 | 36282 ft | 460 kts | 45° |
| 2026-05-01 13:41 | 46.54003 | 6.85789 | 36272 ft | 460 kts | 45° |
| 2026-05-01 13:41 | 46.58342 | 6.92620 | 36270 ft | 460 kts | 50° |
| 2026-05-01 13:42 | 46.62322 | 6.99902 | 36276 ft | 460 kts | 51° |
| 2026-05-01 13:42 | 46.66281 | 7.07204 | 36272 ft | 459 kts | 51° |
| 2026-05-01 13:43 | 46.70270 | 7.14453 | 36272 ft | 458 kts | 50° |
| 2026-05-01 13:43 | 46.74268 | 7.21687 | 36274 ft | 458 kts | 50° |
| 2026-05-01 13:44 | 46.78256 | 7.28924 | 36270 ft | 457 kts | 51° |
| 2026-05-01 13:44 | 46.82231 | 7.36160 | 36270 ft | 457 kts | 50° |
| 2026-05-01 13:45 | 46.86194 | 7.43395 | 36259 ft | 455 kts | 50° |
| 2026-05-01 13:45 | 46.90127 | 7.50611 | 36257 ft | 453 kts | 51° |
| 2026-05-01 13:46 | 46.94038 | 7.57811 | 36362 ft | 449 kts | 51° |
| 2026-05-01 13:46 | 46.95940 | 7.61318 | 36635 ft | 445 kts | 51° |
| 2026-05-01 13:46 | 46.97858 | 7.64861 | 36878 ft | 443 kts | 51° |
| 2026-05-01 13:46 | 46.99767 | 7.68390 | 37139 ft | 440 kts | 51° |
| 2026-05-01 13:47 | 47.01667 | 7.71906 | 37264 ft | 441 kts | 51° |
| 2026-05-01 13:47 | 47.05509 | 7.79030 | 37266 ft | 449 kts | 51° |
| 2026-05-01 13:48 | 47.09392 | 7.86250 | 37274 ft | 452 kts | 51° |
| 2026-05-01 13:48 | 47.13293 | 7.93526 | 37274 ft | 455 kts | 51° |
| 2026-05-01 13:49 | 47.16816 | 8.01287 | 37286 ft | 456 kts | 58° |
| 2026-05-01 13:49 | 47.20096 | 8.09271 | 37270 ft | 456 kts | 58° |
| 2026-05-01 13:50 | 47.23412 | 8.17209 | 37276 ft | 455 kts | 57° |
| 2026-05-01 13:50 | 47.26747 | 8.25098 | 37271 ft | 453 kts | 57° |
| 2026-05-01 13:51 | 47.29863 | 8.33133 | 37277 ft | 452 kts | 66° |
| 2026-05-01 13:51 | 47.31480 | 8.42046 | 37285 ft | 451 kts | 78° |
| 2026-05-01 13:52 | 47.32589 | 8.51126 | 37291 ft | 449 kts | 79° |
| 2026-05-01 13:52 | 47.33711 | 8.60167 | 37291 ft | 447 kts | 78° |
| 2026-05-01 13:53 | 47.34859 | 8.69158 | 37296 ft | 446 kts | 78° |
| 2026-05-01 13:53 | 47.36577 | 8.82572 | 37293 ft | 446 kts | 78° |
| 2026-05-01 13:54 | 47.37719 | 8.91565 | 37297 ft | 446 kts | 78° |
| 2026-05-01 13:54 | 47.38851 | 9.00548 | 37300 ft | 447 kts | 78° |
| 2026-05-01 13:55 | 47.39980 | 9.09571 | 37307 ft | 448 kts | 78° |
| 2026-05-01 13:55 | 47.41101 | 9.18624 | 37312 ft | 449 kts | 79° |
| 2026-05-01 13:56 | 47.41366 | 9.27849 | 37313 ft | 452 kts | 90° |
| 2026-05-01 13:56 | 47.41165 | 9.37130 | 37306 ft | 452 kts | 90° |
| 2026-05-01 13:57 | 47.41024 | 9.46417 | 37287 ft | 452 kts | 89° |
| 2026-05-01 13:57 | 47.40920 | 9.55700 | 37290 ft | 452 kts | 89° |
| 2026-05-01 13:58 | 47.41443 | 9.64861 | 37301 ft | 447 kts | 72° |
| 2026-05-01 13:58 | 47.43933 | 9.73156 | 37303 ft | 441 kts | 57° |
| 2026-05-01 13:59 | 47.47135 | 9.80780 | 37294 ft | 440 kts | 56° |
| 2026-05-01 13:59 | 47.50363 | 9.88452 | 37291 ft | 439 kts | 57° |
| 2026-05-01 14:00 | 47.53102 | 9.95064 | 37291 ft | 438 kts | 57° |
| 2026-05-01 14:00 | 47.56257 | 10.02746 | 37308 ft | 437 kts | 57° |
| 2026-05-01 14:01 | 47.59229 | 10.10024 | 37324 ft | 436 kts | 57° |
| 2026-05-01 14:01 | 47.62320 | 10.17615 | 37309 ft | 436 kts | 57° |
| 2026-05-01 14:02 | 47.64834 | 10.23805 | 37312 ft | 436 kts | 57° |
| 2026-05-01 14:02 | 47.67864 | 10.31283 | 37310 ft | 436 kts | 57° |
| 2026-05-01 14:03 | 47.70905 | 10.38808 | 37316 ft | 435 kts | 57° |
| 2026-05-01 14:03 | 47.73695 | 10.45732 | 37311 ft | 435 kts | 57° |
| 2026-05-01 14:04 | 47.76464 | 10.52626 | 37322 ft | 434 kts | 57° |
| 2026-05-01 14:04 | 47.79036 | 10.59037 | 37345 ft | 434 kts | 57° |
| 2026-05-01 14:05 | 47.82606 | 10.67958 | 37323 ft | 434 kts | 57° |
| 2026-05-01 14:05 | 47.85685 | 10.75680 | 37324 ft | 434 kts | 57° |
| 2026-05-01 14:06 | 47.88480 | 10.82712 | 37310 ft | 434 kts | 57° |
| 2026-05-01 14:06 | 47.91547 | 10.90448 | 37313 ft | 433 kts | 58° |
| 2026-05-01 14:07 | 47.94582 | 10.98125 | 37322 ft | 433 kts | 58° |
| 2026-05-01 14:08 | 47.99158 | 11.09743 | 37347 ft | 433 kts | 58° |
| 2026-05-01 14:08 | 48.02205 | 11.17506 | 37328 ft | 433 kts | 58° |
| 2026-05-01 14:09 | 48.05243 | 11.25268 | 37321 ft | 432 kts | 58° |
| 2026-05-01 14:09 | 48.08273 | 11.33033 | 37315 ft | 432 kts | 58° |
| 2026-05-01 14:10 | 48.11296 | 11.40802 | 37314 ft | 432 kts | 58° |
| 2026-05-01 14:10 | 48.14311 | 11.48575 | 37324 ft | 431 kts | 58° |
| 2026-05-01 14:11 | 48.17318 | 11.56349 | 37331 ft | 431 kts | 58° |
| 2026-05-01 14:11 | 48.21819 | 11.68026 | 37353 ft | 431 kts | 58° |
| 2026-05-01 14:12 | 48.24813 | 11.75823 | 37344 ft | 431 kts | 58° |
| 2026-05-01 14:12 | 48.27797 | 11.83616 | 37348 ft | 431 kts | 58° |
| 2026-05-01 14:13 | 48.30274 | 11.90103 | 37350 ft | 431 kts | 58° |
| 2026-05-01 14:13 | 48.33749 | 11.99230 | 37349 ft | 430 kts | 58° |
| 2026-05-01 14:14 | 48.36715 | 12.07047 | 37350 ft | 430 kts | 58° |
| 2026-05-01 14:14 | 48.39673 | 12.14864 | 37374 ft | 430 kts | 58° |
| 2026-05-01 14:15 | 48.42630 | 12.22701 | 37366 ft | 430 kts | 58° |
| 2026-05-01 14:15 | 48.45578 | 12.30536 | 37358 ft | 430 kts | 58° |
| 2026-05-01 14:16 | 48.48512 | 12.38359 | 37359 ft | 429 kts | 59° |
| 2026-05-01 14:16 | 48.51444 | 12.46201 | 37364 ft | 429 kts | 59° |
| 2026-05-01 14:17 | 48.54366 | 12.54040 | 37365 ft | 429 kts | 59° |
| 2026-05-01 14:17 | 48.57283 | 12.61887 | 37363 ft | 428 kts | 59° |
| 2026-05-01 14:18 | 48.60173 | 12.69684 | 37371 ft | 428 kts | 59° |
| 2026-05-01 14:18 | 48.62606 | 12.76267 | 37364 ft | 428 kts | 59° |
| 2026-05-01 14:19 | 48.65974 | 12.85407 | 37366 ft | 428 kts | 59° |
| 2026-05-01 14:19 | 48.68864 | 12.93274 | 37370 ft | 428 kts | 59° |
| 2026-05-01 14:20 | 48.73193 | 13.05106 | 37368 ft | 428 kts | 59° |
| 2026-05-01 14:21 | 48.76074 | 13.13009 | 37366 ft | 429 kts | 59° |
| 2026-05-01 14:21 | 48.78951 | 13.20925 | 37391 ft | 429 kts | 59° |
| 2026-05-01 14:22 | 48.83262 | 13.32833 | 37369 ft | 429 kts | 59° |
| 2026-05-01 14:22 | 48.86108 | 13.40722 | 37359 ft | 428 kts | 59° |
| 2026-05-01 14:23 | 48.89243 | 13.48359 | 37361 ft | 424 kts | 46° |
| 2026-05-01 14:23 | 48.93789 | 13.53946 | 37366 ft | 421 kts | 27° |
| 2026-05-01 14:24 | 48.99087 | 13.57707 | 37368 ft | 420 kts | 24° |
| 2026-05-01 14:24 | 49.04413 | 13.61383 | 37373 ft | 420 kts | 25° |
| 2026-05-01 14:25 | 49.09736 | 13.65110 | 37383 ft | 421 kts | 25° |
| 2026-05-01 14:25 | 49.15057 | 13.68880 | 37379 ft | 422 kts | 25° |
| 2026-05-01 14:26 | 49.23054 | 13.74581 | 37379 ft | 423 kts | 25° |
| 2026-05-01 14:27 | 49.27493 | 13.77756 | 37380 ft | 424 kts | 25° |
| 2026-05-01 14:27 | 49.32847 | 13.81593 | 37378 ft | 425 kts | 25° |
| 2026-05-01 14:28 | 49.40888 | 13.87372 | 37374 ft | 426 kts | 25° |
| 2026-05-01 14:28 | 49.46254 | 13.91240 | 37372 ft | 426 kts | 25° |
| 2026-05-01 14:29 | 49.51622 | 13.95119 | 37374 ft | 426 kts | 25° |
| 2026-05-01 14:30 | 49.62346 | 14.02897 | 37376 ft | 426 kts | 25° |
| 2026-05-01 14:31 | 49.70376 | 14.08746 | 37380 ft | 425 kts | 25° |
| 2026-05-01 14:31 | 49.75720 | 14.12650 | 37373 ft | 425 kts | 25° |
| 2026-05-01 14:32 | 49.81022 | 14.16533 | 37389 ft | 424 kts | 25° |
| 2026-05-01 14:32 | 49.86357 | 14.20450 | 37369 ft | 424 kts | 25° |
| 2026-05-01 14:33 | 49.91678 | 14.24367 | 37376 ft | 423 kts | 25° |
| 2026-05-01 14:33 | 49.96986 | 14.28283 | 37370 ft | 422 kts | 25° |
| 2026-05-01 14:34 | 50.02282 | 14.32200 | 37368 ft | 421 kts | 25° |
| 2026-05-01 14:34 | 50.07567 | 14.36118 | 37376 ft | 421 kts | 25° |
| 2026-05-01 14:35 | 50.12850 | 14.40045 | 37371 ft | 420 kts | 25° |
| 2026-05-01 14:35 | 50.18129 | 14.43978 | 37363 ft | 421 kts | 25° |
| 2026-05-01 14:36 | 50.23409 | 14.47923 | 37361 ft | 421 kts | 25° |
| 2026-05-01 14:36 | 50.28693 | 14.51879 | 37359 ft | 421 kts | 25° |
| 2026-05-01 14:37 | 50.33979 | 14.55847 | 37361 ft | 422 kts | 25° |
| 2026-05-01 14:37 | 50.39268 | 14.59827 | 37358 ft | 422 kts | 25° |
| 2026-05-01 14:38 | 50.44567 | 14.63825 | 37358 ft | 423 kts | 25° |
| 2026-05-01 14:38 | 50.49835 | 14.67809 | 37354 ft | 423 kts | 25° |
| 2026-05-01 14:39 | 50.55135 | 14.71828 | 37351 ft | 423 kts | 25° |
| 2026-05-01 14:39 | 50.60445 | 14.75864 | 37347 ft | 424 kts | 25° |
| 2026-05-01 14:40 | 50.65263 | 14.81074 | 37370 ft | 424 kts | 47° |
| 2026-05-01 14:40 | 50.67049 | 14.84797 | 37340 ft | 427 kts | 58° |
| 2026-05-01 14:40 | 50.68302 | 14.89055 | 37364 ft | 430 kts | 66° |
| 2026-05-01 14:41 | 50.70359 | 14.97909 | 37339 ft | 430 kts | 67° |
| 2026-05-01 14:41 | 50.72414 | 15.06772 | 37347 ft | 430 kts | 67° |
| 2026-05-01 14:42 | 50.74506 | 15.15609 | 37358 ft | 430 kts | 66° |
| 2026-05-01 14:42 | 50.76605 | 15.24441 | 37338 ft | 429 kts | 66° |
| 2026-05-01 14:43 | 50.78693 | 15.33270 | 37336 ft | 429 kts | 66° |
| 2026-05-01 14:43 | 50.80822 | 15.42056 | 37333 ft | 428 kts | 65° |
| 2026-05-01 14:44 | 50.83080 | 15.50745 | 37345 ft | 427 kts | 65° |
| 2026-05-01 14:44 | 50.86456 | 15.63797 | 37337 ft | 428 kts | 65° |
| 2026-05-01 14:45 | 50.89779 | 15.76849 | 37343 ft | 428 kts | 65° |
| 2026-05-01 14:46 | 50.91994 | 15.85598 | 37329 ft | 428 kts | 65° |
| 2026-05-01 14:46 | 50.95305 | 15.98739 | 37323 ft | 428 kts | 65° |
| 2026-05-01 14:47 | 50.97409 | 16.07128 | 37334 ft | 427 kts | 65° |
| 2026-05-01 14:48 | 51.00621 | 16.19990 | 37330 ft | 427 kts | 65° |
| 2026-05-01 14:48 | 51.03893 | 16.33168 | 37332 ft | 428 kts | 65° |
| 2026-05-01 14:49 | 51.08229 | 16.50756 | 37318 ft | 426 kts | 65° |
| 2026-05-01 14:50 | 51.12474 | 16.68108 | 37317 ft | 425 kts | 65° |
| 2026-05-01 14:51 | 51.15652 | 16.81191 | 37316 ft | 424 kts | 65° |
| 2026-05-01 14:52 | 51.18828 | 16.94338 | 37329 ft | 424 kts | 65° |
| 2026-05-01 14:53 | 51.21955 | 17.07427 | 37318 ft | 423 kts | 65° |
| 2026-05-01 14:53 | 51.24042 | 17.16214 | 37316 ft | 423 kts | 65° |
| 2026-05-01 14:54 | 51.25976 | 17.24381 | 37315 ft | 423 kts | 66° |
| 2026-05-01 14:54 | 51.28051 | 17.33180 | 37317 ft | 423 kts | 66° |
| 2026-05-01 14:55 | 51.30110 | 17.41944 | 37313 ft | 424 kts | 66° |
| 2026-05-01 14:55 | 51.32174 | 17.50761 | 37318 ft | 424 kts | 66° |
| 2026-05-01 14:56 | 51.34090 | 17.58980 | 37313 ft | 424 kts | 66° |
| 2026-05-01 14:56 | 51.36147 | 17.67813 | 37307 ft | 424 kts | 66° |
| 2026-05-01 14:57 | 51.38197 | 17.76644 | 37306 ft | 423 kts | 66° |
| 2026-05-01 14:57 | 51.41258 | 17.89906 | 37315 ft | 423 kts | 66° |
| 2026-05-01 14:58 | 51.43289 | 17.98750 | 37307 ft | 423 kts | 66° |
| 2026-05-01 14:58 | 51.45299 | 18.07538 | 37315 ft | 423 kts | 66° |
| 2026-05-01 14:59 | 51.47315 | 18.16385 | 37306 ft | 422 kts | 66° |
| 2026-05-01 14:59 | 51.49320 | 18.25221 | 37301 ft | 421 kts | 66° |
| 2026-05-01 15:00 | 51.52308 | 18.38451 | 37306 ft | 419 kts | 66° |
| 2026-05-01 15:01 | 51.54297 | 18.47295 | 36801 ft | 424 kts | 66° |
| 2026-05-01 15:01 | 51.55292 | 18.51740 | 36261 ft | 422 kts | 66° |
| 2026-05-01 15:01 | 51.56264 | 18.56171 | 35665 ft | 422 kts | 69° |
| 2026-05-01 15:01 | 51.56939 | 18.60787 | 35031 ft | 427 kts | 77° |
| 2026-05-01 15:02 | 51.57180 | 18.65572 | 34444 ft | 432 kts | 83° |
| 2026-05-01 15:02 | 51.57200 | 18.67205 | 34229 ft | 432 kts | 84° |
| 2026-05-01 15:02 | 51.57263 | 18.75237 | 32987 ft | 432 kts | 84° |
| 2026-05-01 15:02 | 51.57297 | 18.80061 | 32299 ft | 431 kts | 84° |
| 2026-05-01 15:03 | 51.57338 | 18.84883 | 31594 ft | 431 kts | 84° |
| 2026-05-01 15:03 | 51.57385 | 18.89695 | 30866 ft | 431 kts | 84° |
| 2026-05-01 15:03 | 51.57434 | 18.94489 | 30353 ft | 426 kts | 84° |
| 2026-05-01 15:03 | 51.57483 | 18.99224 | 29780 ft | 421 kts | 84° |
| 2026-05-01 15:04 | 51.57531 | 19.03894 | 29256 ft | 415 kts | 84° |
| 2026-05-01 15:04 | 51.57577 | 19.08509 | 28737 ft | 409 kts | 84° |
| 2026-05-01 15:04 | 51.57622 | 19.13055 | 28229 ft | 404 kts | 84° |
| 2026-05-01 15:04 | 51.57664 | 19.17489 | 27711 ft | 400 kts | 84° |
| 2026-05-01 15:05 | 51.57713 | 19.21928 | 27201 ft | 395 kts | 83° |
| 2026-05-01 15:05 | 51.58081 | 19.26278 | 26407 ft | 392 kts | 72° |
| 2026-05-01 15:05 | 51.58811 | 19.30502 | 25745 ft | 392 kts | 71° |
| 2026-05-01 15:05 | 51.59547 | 19.34705 | 25204 ft | 389 kts | 71° |
| 2026-05-01 15:06 | 51.60270 | 19.38876 | 24711 ft | 386 kts | 71° |
| 2026-05-01 15:06 | 51.60979 | 19.43018 | 24200 ft | 383 kts | 71° |
| 2026-05-01 15:06 | 51.61677 | 19.47137 | 23651 ft | 381 kts | 71° |
| 2026-05-01 15:06 | 51.62366 | 19.51236 | 23068 ft | 378 kts | 71° |
| 2026-05-01 15:07 | 51.63045 | 19.55300 | 22542 ft | 374 kts | 71° |
| 2026-05-01 15:07 | 51.63715 | 19.59328 | 22021 ft | 370 kts | 71° |
| 2026-05-01 15:07 | 51.64376 | 19.63315 | 21517 ft | 367 kts | 71° |
| 2026-05-01 15:07 | 51.65030 | 19.67268 | 21011 ft | 364 kts | 71° |
| 2026-05-01 15:08 | 51.65676 | 19.71181 | 20576 ft | 360 kts | 70° |
| 2026-05-01 15:08 | 51.66315 | 19.75059 | 20096 ft | 357 kts | 70° |
| 2026-05-01 15:08 | 51.66947 | 19.78903 | 19627 ft | 354 kts | 70° |
| 2026-05-01 15:08 | 51.67572 | 19.82717 | 19162 ft | 351 kts | 70° |
| 2026-05-01 15:09 | 51.68192 | 19.86505 | 18714 ft | 348 kts | 70° |
| 2026-05-01 15:09 | 51.68807 | 19.90267 | 18197 ft | 346 kts | 70° |
| 2026-05-01 15:09 | 51.69415 | 19.94002 | 17700 ft | 343 kts | 70° |
| 2026-05-01 15:09 | 51.70016 | 19.97698 | 17226 ft | 340 kts | 70° |
| 2026-05-01 15:10 | 51.70611 | 20.01371 | 16768 ft | 337 kts | 71° |
| 2026-05-01 15:10 | 51.71785 | 20.08627 | 15879 ft | 332 kts | 71° |
| 2026-05-01 15:10 | 51.72363 | 20.12216 | 15442 ft | 329 kts | 71° |
| 2026-05-01 15:11 | 51.72927 | 20.15724 | 15007 ft | 327 kts | 71° |
| 2026-05-01 15:11 | 51.74061 | 20.22794 | 14155 ft | 324 kts | 71° |
| 2026-05-01 15:11 | 51.74621 | 20.26298 | 13689 ft | 322 kts | 71° |
| 2026-05-01 15:12 | 51.75178 | 20.29788 | 13251 ft | 320 kts | 71° |
| 2026-05-01 15:12 | 51.76278 | 20.36708 | 12372 ft | 316 kts | 71° |
| 2026-05-01 15:12 | 51.76820 | 20.40133 | 11954 ft | 314 kts | 71° |
| 2026-05-01 15:13 | 51.78413 | 20.50239 | 11050 ft | 299 kts | 71° |
| 2026-05-01 15:14 | 51.79401 | 20.56552 | 10778 ft | 281 kts | 71° |
| 2026-05-01 15:14 | 51.79872 | 20.59563 | 10672 ft | 272 kts | 71° |
| 2026-05-01 15:14 | 51.80755 | 20.65230 | 10439 ft | 250 kts | 71° |
| 2026-05-01 15:15 | 51.81587 | 20.70565 | 10200 ft | 245 kts | 71° |
| 2026-05-01 15:15 | 51.82440 | 20.76016 | 9577 ft | 259 kts | 71° |
| 2026-05-01 15:16 | 51.83316 | 20.81677 | 8841 ft | 255 kts | 72° |
| 2026-05-01 15:16 | 51.84168 | 20.87219 | 8279 ft | 253 kts | 72° |
| 2026-05-01 15:17 | 51.85013 | 20.92722 | 7747 ft | 252 kts | 73° |
| 2026-05-01 15:18 | 51.86238 | 21.00745 | 7175 ft | 230 kts | 73° |
| 2026-05-01 15:18 | 51.86609 | 21.03188 | 7061 ft | 218 kts | 72° |
| 2026-05-01 15:19 | 51.88441 | 21.09760 | 6057 ft | 209 kts | 62° |
| 2026-05-01 15:19 | 51.89683 | 21.13955 | 5855 ft | 207 kts | 62° |
| 2026-05-01 15:19 | 51.90330 | 21.16147 | 5795 ft | 225 kts | 62° |
| 2026-05-01 15:20 | 51.91748 | 21.19266 | 5556 ft | 223 kts | 24° |
| 2026-05-01 15:20 | 51.93242 | 21.19572 | 5184 ft | 222 kts | 346° |
| 2026-05-01 15:20 | 51.94604 | 21.18572 | 5096 ft | 210 kts | 327° |
| 2026-05-01 15:21 | 51.95625 | 21.16978 | 4869 ft | 206 kts | 310° |
| 2026-05-01 15:21 | 51.96467 | 21.15102 | 4531 ft | 207 kts | 307° |
| 2026-05-01 15:21 | 51.97376 | 21.13379 | 4363 ft | 196 kts | 329° |
| 2026-05-01 15:21 | 51.98633 | 21.12560 | 4129 ft | 196 kts | 341° |
| 2026-05-01 15:22 | 52.01045 | 21.10296 | 3582 ft | 201 kts | 333° |
| 2026-05-01 15:22 | 52.02258 | 21.09256 | 3315 ft | 194 kts | 334° |
| 2026-05-01 15:22 | 52.03432 | 21.08238 | 3062 ft | 189 kts | 334° |
| 2026-05-01 15:23 | 52.04567 | 21.07243 | 2810 ft | 182 kts | 334° |
| 2026-05-01 15:23 | 52.05661 | 21.06283 | 2568 ft | 176 kts | 333° |
| 2026-05-01 15:23 | 52.06719 | 21.05354 | 2331 ft | 169 kts | 334° |
| 2026-05-01 15:23 | 52.07711 | 21.04484 | 2134 ft | 156 kts | 333° |
| 2026-05-01 15:24 | 52.08632 | 21.03674 | 1927 ft | 147 kts | 333° |
| 2026-05-01 15:24 | 52.09527 | 21.02891 | 1719 ft | 145 kts | 334° |
| 2026-05-01 15:24 | 52.10409 | 21.02117 | 1531 ft | 143 kts | 334° |
| 2026-05-01 15:24 | 52.11291 | 21.01344 | 1344 ft | 146 kts | 333° |
| 2026-05-01 15:25 | 52.12171 | 21.00571 | 1123 ft | 140 kts | 334° |
| 2026-05-01 15:25 | 52.13043 | 20.99807 | 949 ft | 145 kts | 334° |
| 2026-05-01 15:25 | 52.13927 | 20.99031 | 744 ft | 142 kts | 334° |
| 2026-05-01 15:25 | 52.14808 | 20.98255 | 535 ft | 145 kts | 334° |
| 2026-05-01 15:26 | 52.15683 | 20.97488 | 369 ft | 141 kts | 334° |
| 2026-05-01 15:26 | 52.16445 | 20.96825 | 335 ft | 91 kts | 332° |
| 2026-05-01 15:26 | 52.16758 | 20.96560 | 337 ft | 28 kts | 341° |
| 2026-05-01 15:26 | 52.16930 | 20.96512 | 336 ft | 24 kts | 360° |
| 2026-05-01 15:27 | 52.17065 | 20.96525 | 337 ft | 13 kts | 26° |
| 2026-05-01 15:27 | 52.17084 | 20.96556 | 334 ft | 0 kts | 57° |
| 2026-05-01 15:28 | 52.17084 | 20.96557 | 337 ft | 1 kts | 57° |
| 2026-05-01 15:29 | 52.17122 | 20.96666 | 334 ft | 10 kts | 62° |
| 2026-05-01 15:29 | 52.17155 | 20.96764 | 336 ft | 8 kts | 61° |
| 2026-05-01 15:29 | 52.17116 | 20.96876 | 338 ft | 8 kts | 151° |
| 2026-05-01 15:30 | 52.16992 | 20.96984 | 335 ft | 11 kts | 152° |
| 2026-05-01 15:31 | 52.16927 | 20.97062 | 336 ft | 2 kts | 81° |
| 2026-05-01 15:31 | 52.16944 | 20.97136 | 334 ft | 2 kts | 67° |
| 2026-05-01 15:32 | 52.16955 | 20.97179 | 336 ft | 1 kts | 68° |
| 2026-05-01 15:32 | 52.16957 | 20.97189 | 337 ft | 0 kts | 68° |